DLH6LW EDDM-OMDB
Flight info
| Callsign | DLH6LW |
|---|---|
| Flight time | N/A |
| Altitude | 37000 |
| Route | VAVOR3E/08R VAVOR M867 RADIZ DCT GIMIX DCT EPODO DCT DABAR DCT SIRMI DCT REMPI DCT TIKSA DCT VAKSU DCT RODON DCT DIMIS DCT IPTES UL604 SALUN N705 MMA/N0483F390 P751 DASUM Y234 FYM M872 BDB Y214 RAPMA DCT KUVSO DCT KATIT DCT PEKEM M628 RIGIL G783 ELUDA/N0507F350 G783 ASPED Q308 KIPOK Q568 IMPED |
| Aircraft | A35K/H-SDE2E3GHIJ3J4J5LM1ORWXY/LB1D1 |
Departure
| Time | 2026-05-01 14:36 |
|---|---|
| Airport | Munich Airport (EDDM) |
Arrival
| Time | N/A |
|---|---|
| Airport | Dubai International Airport (OMDB) |
| Time | Latitude | Longitude | Altitude | Speed | Heading |
|---|---|---|---|---|---|
| 2026-05-01 14:05 | 48.35691 | 11.79290 | 1480 ft | 0 kts | 263° |
| 2026-05-01 14:15 | 48.35691 | 11.79293 | 1475 ft | 1 kts | 263° |
| 2026-05-01 14:15 | 48.35692 | 11.79307 | 1475 ft | 1 kts | 263° |
| 2026-05-01 14:16 | 48.35693 | 11.79319 | 1485 ft | 0 kts | 263° |
| 2026-05-01 14:16 | 48.35694 | 11.79321 | 1485 ft | 2 kts | 263° |
| 2026-05-01 14:16 | 48.35696 | 11.79348 | 1475 ft | 3 kts | 250° |
| 2026-05-01 14:16 | 48.35702 | 11.79373 | 1475 ft | 3 kts | 248° |
| 2026-05-01 14:17 | 48.35713 | 11.79398 | 1475 ft | 3 kts | 213° |
| 2026-05-01 14:17 | 48.35730 | 11.79409 | 1475 ft | 2 kts | 178° |
| 2026-05-01 14:20 | 48.35728 | 11.79409 | 1475 ft | 2 kts | 178° |
| 2026-05-01 14:21 | 48.35683 | 11.79416 | 1475 ft | 0 kts | 173° |
| 2026-05-01 14:25 | 48.35682 | 11.79416 | 1491 ft | 1 kts | 173° |
| 2026-05-01 14:25 | 48.35646 | 11.79423 | 1481 ft | 7 kts | 173° |
| 2026-05-01 14:25 | 48.35619 | 11.79428 | 1475 ft | 0 kts | 173° |
| 2026-05-01 14:26 | 48.35607 | 11.79430 | 1479 ft | 0 kts | 173° |
| 2026-05-01 14:26 | 48.35526 | 11.79443 | 1484 ft | 12 kts | 174° |
| 2026-05-01 14:26 | 48.35435 | 11.79458 | 1480 ft | 14 kts | 174° |
| 2026-05-01 14:27 | 48.35333 | 11.79476 | 1479 ft | 16 kts | 174° |
| 2026-05-01 14:27 | 48.35220 | 11.79495 | 1484 ft | 17 kts | 173° |
| 2026-05-01 14:27 | 48.35096 | 11.79516 | 1482 ft | 19 kts | 173° |
| 2026-05-01 14:28 | 48.34910 | 11.79549 | 1477 ft | 0 kts | 173° |
| 2026-05-01 14:30 | 48.34776 | 11.79372 | 1484 ft | 15 kts | 263° |
| 2026-05-01 14:30 | 48.34763 | 11.79201 | 1488 ft | 18 kts | 263° |
| 2026-05-01 14:30 | 48.34748 | 11.79000 | 1482 ft | 20 kts | 263° |
| 2026-05-01 14:31 | 48.34713 | 11.78540 | 1487 ft | 24 kts | 263° |
| 2026-05-01 14:31 | 48.34696 | 11.78321 | 1479 ft | 19 kts | 262° |
| 2026-05-01 14:31 | 48.34685 | 11.78186 | 1482 ft | 1 kts | 263° |
| 2026-05-01 14:31 | 48.34685 | 11.78185 | 1482 ft | 0 kts | 263° |
| 2026-05-01 14:32 | 48.34675 | 11.78048 | 1483 ft | 21 kts | 263° |
| 2026-05-01 14:32 | 48.34658 | 11.77824 | 1491 ft | 22 kts | 263° |
| 2026-05-01 14:32 | 48.34639 | 11.77580 | 1483 ft | 24 kts | 263° |
| 2026-05-01 14:32 | 48.34619 | 11.77325 | 1482 ft | 26 kts | 263° |
| 2026-05-01 14:33 | 48.34597 | 11.77050 | 1483 ft | 27 kts | 263° |
| 2026-05-01 14:33 | 48.34574 | 11.76767 | 1488 ft | 28 kts | 263° |
| 2026-05-01 14:33 | 48.34550 | 11.76467 | 1478 ft | 30 kts | 264° |
| 2026-05-01 14:33 | 48.34529 | 11.76154 | 1491 ft | 31 kts | 263° |
| 2026-05-01 14:34 | 48.34504 | 11.75831 | 1482 ft | 32 kts | 263° |
| 2026-05-01 14:34 | 48.34478 | 11.75495 | 1484 ft | 33 kts | 263° |
| 2026-05-01 14:34 | 48.34452 | 11.75152 | 1491 ft | 26 kts | 263° |
| 2026-05-01 14:34 | 48.34428 | 11.74991 | 1479 ft | 16 kts | 241° |
| 2026-05-01 14:35 | 48.34334 | 11.74916 | 1481 ft | 17 kts | 182° |
| 2026-05-01 14:35 | 48.34217 | 11.74943 | 1475 ft | 17 kts | 155° |
| 2026-05-01 14:35 | 48.34132 | 11.75067 | 1475 ft | 18 kts | 126° |
| 2026-05-01 14:35 | 48.34085 | 11.75289 | 1487 ft | 34 kts | 91° |
| 2026-05-01 14:36 | 48.34138 | 11.76012 | 1486 ft | 112 kts | 83° |
| 2026-05-01 14:36 | 48.34257 | 11.77573 | 1500 ft | 188 kts | 84° |
| 2026-05-01 14:36 | 48.34430 | 11.79767 | 1901 ft | 229 kts | 84° |
| 2026-05-01 14:36 | 48.34632 | 11.82328 | 2625 ft | 264 kts | 83° |
| 2026-05-01 14:37 | 48.34846 | 11.85189 | 3688 ft | 281 kts | 83° |
| 2026-05-01 14:37 | 48.35063 | 11.88109 | 5200 ft | 284 kts | 84° |
| 2026-05-01 14:37 | 48.35291 | 11.91161 | 6227 ft | 304 kts | 85° |
| 2026-05-01 14:37 | 48.35312 | 11.94461 | 6778 ft | 333 kts | 101° |
| 2026-05-01 14:38 | 48.34409 | 11.97847 | 7038 ft | 366 kts | 124° |
| 2026-05-01 14:38 | 48.32583 | 12.00518 | 7720 ft | 368 kts | 145° |
| 2026-05-01 14:38 | 48.30339 | 12.02423 | 8857 ft | 378 kts | 155° |
| 2026-05-01 14:38 | 48.27727 | 12.03385 | 9577 ft | 396 kts | 174° |
| 2026-05-01 14:39 | 48.25008 | 12.03175 | 10372 ft | 397 kts | 185° |
| 2026-05-01 14:39 | 48.22277 | 12.02746 | 11737 ft | 391 kts | 183° |
| 2026-05-01 14:39 | 48.19527 | 12.02408 | 12964 ft | 394 kts | 181° |
| 2026-05-01 14:39 | 48.16779 | 12.02151 | 13652 ft | 409 kts | 181° |
| 2026-05-01 14:40 | 48.13973 | 12.02348 | 13947 ft | 391 kts | 165° |
| 2026-05-01 14:40 | 48.11497 | 12.03618 | 14053 ft | 363 kts | 152° |
| 2026-05-01 14:40 | 48.09275 | 12.05117 | 14263 ft | 337 kts | 152° |
| 2026-05-01 14:40 | 48.07204 | 12.06510 | 14334 ft | 318 kts | 152° |
| 2026-05-01 14:41 | 48.05246 | 12.07804 | 14625 ft | 300 kts | 152° |
| 2026-05-01 14:41 | 48.03320 | 12.09072 | 14846 ft | 308 kts | 152° |
| 2026-05-01 14:41 | 48.01326 | 12.10376 | 15397 ft | 315 kts | 152° |
| 2026-05-01 14:41 | 47.99312 | 12.11676 | 16080 ft | 317 kts | 152° |
| 2026-05-01 14:42 | 47.97270 | 12.12987 | 16768 ft | 320 kts | 153° |
| 2026-05-01 14:42 | 47.95210 | 12.14307 | 17452 ft | 324 kts | 153° |
| 2026-05-01 14:42 | 47.93207 | 12.15850 | 18115 ft | 324 kts | 143° |
| 2026-05-01 14:42 | 47.91339 | 12.17817 | 18530 ft | 335 kts | 138° |
| 2026-05-01 14:43 | 47.89490 | 12.20061 | 18818 ft | 349 kts | 136° |
| 2026-05-01 14:43 | 47.87620 | 12.22482 | 19123 ft | 364 kts | 135° |
| 2026-05-01 14:43 | 47.85686 | 12.25024 | 19409 ft | 378 kts | 135° |
| 2026-05-01 14:43 | 47.83667 | 12.27657 | 19717 ft | 393 kts | 135° |
| 2026-05-01 14:44 | 47.81562 | 12.30360 | 20002 ft | 406 kts | 136° |
| 2026-05-01 14:44 | 47.77161 | 12.35904 | 20829 ft | 425 kts | 136° |
| 2026-05-01 14:44 | 47.74880 | 12.38744 | 21396 ft | 431 kts | 136° |
| 2026-05-01 14:45 | 47.72565 | 12.41620 | 21927 ft | 436 kts | 136° |
| 2026-05-01 14:45 | 47.67858 | 12.47457 | 23144 ft | 444 kts | 137° |
| 2026-05-01 14:45 | 47.65471 | 12.50394 | 23725 ft | 449 kts | 137° |
| 2026-05-01 14:46 | 47.63047 | 12.53367 | 24250 ft | 454 kts | 137° |
| 2026-05-01 14:46 | 47.58042 | 12.59174 | 25291 ft | 458 kts | 140° |
| 2026-05-01 14:46 | 47.55462 | 12.61922 | 26164 ft | 452 kts | 141° |
| 2026-05-01 14:47 | 47.52927 | 12.64585 | 27161 ft | 441 kts | 140° |
| 2026-05-01 14:47 | 47.50458 | 12.67187 | 28227 ft | 429 kts | 140° |
| 2026-05-01 14:47 | 47.48071 | 12.69723 | 29295 ft | 416 kts | 140° |
| 2026-05-01 14:48 | 47.43584 | 12.74528 | 31337 ft | 378 kts | 139° |
| 2026-05-01 14:48 | 47.41498 | 12.76781 | 32096 ft | 367 kts | 139° |
| 2026-05-01 14:48 | 47.37438 | 12.81196 | 32888 ft | 359 kts | 138° |
| 2026-05-01 14:49 | 47.33371 | 12.85627 | 33020 ft | 370 kts | 139° |
| 2026-05-01 14:49 | 47.29141 | 12.90209 | 33049 ft | 384 kts | 139° |
| 2026-05-01 14:50 | 47.26259 | 12.93310 | 33247 ft | 390 kts | 139° |
| 2026-05-01 14:50 | 47.20331 | 12.99666 | 33594 ft | 402 kts | 139° |
| 2026-05-01 14:51 | 47.18051 | 13.02108 | 33712 ft | 407 kts | 139° |
| 2026-05-01 14:51 | 47.13427 | 13.07052 | 33967 ft | 416 kts | 139° |
| 2026-05-01 14:52 | 47.08696 | 13.12099 | 34265 ft | 425 kts | 139° |
| 2026-05-01 14:52 | 47.06293 | 13.14659 | 34405 ft | 429 kts | 139° |
| 2026-05-01 14:52 | 47.01401 | 13.19861 | 34656 ft | 438 kts | 139° |
| 2026-05-01 14:53 | 46.98918 | 13.22496 | 34803 ft | 443 kts | 139° |
| 2026-05-01 14:53 | 46.96411 | 13.25153 | 34904 ft | 447 kts | 139° |
| 2026-05-01 14:53 | 46.93872 | 13.27842 | 35000 ft | 452 kts | 139° |
| 2026-05-01 14:53 | 46.91317 | 13.30543 | 35114 ft | 456 kts | 139° |